Dublin, NH (03444)

8:55 AM EST on February 14, 2016 (GMT -0500)
West Peterborough | | Change Station
CLOSE
Current Station
Personal Weather Station
Location: Peterborough, NH
Elevation: 935 ft
Nearby Weather Stations
Active Advisory: Wind Chill Warning

Elev 935 ft 42.88 °N, 71.99 °W | Updated 7 minutes ago

Clear
Clear
-12.8 °F
Feels Like -13 °F
N
0.0
Wind Variable Wind from WSW

Today
High -- | Low -- °F
--% Chance of Precip.
Yesterday
High -- | Low -- °F
Precip. -- in
Pressure 30.40 in
Visibility 10.0 miles
Clouds Clear
Windchill -13 °F
Dew Point -23 °F
Humidity 59%
Rainfall 0.00 in
Snow Depth Not available.
6:47 AM 5:17 PM
Waxing Crescent, 42% visible
METAR KAFN 141352Z AUTO VRB04KT 10SM CLR M23/M32 A3028 RMK AO2 UPB35E45 SLP293 P0000 T12331317
Pressure 30.40 in
Visibility 10.0 miles
Clouds Clear
Windchill -13 °F
Dew Point -23 °F
Humidity 59%
Rainfall 0.00 in
Snow Depth Not available.
6:47 AM 5:17 PM
Waxing Crescent, 42% visible
METAR KAFN 141352Z AUTO VRB04KT 10SM CLR M23/M32 A3028 RMK AO2 UPB35E45 SLP293 P0000 T12331317

10-Day Weather Forecast

Almanac

Astronomy

Feb. 14, 2016 Rise Set
Actual Time
Civil Twilight
Nautical Twilight
Astronomical Twilight
Moon
Length of Visible Light
Length of Day
Tomorrow will be .
, % of the Moon is Illuminated

Today's Extremes

State Highs State Lows

Community

WunderPhotos

Upload Photos

1,892,793 photos uploaded!

WunderBlog® & News

Nearby

Air Quality

  Air Quality AQ Index Pollutant
Not available.

Snow Depth

Station Depth Elevation

Earthquake Activity

City Distance Mag. Time & Date
Minimum magnitude displayed is 2.5.

Coastal Water Temperatures

Place Temperature

Stations

Nearby Weather Stations

Station Location Temp. Windchill Dew Point Humidity Wind Precip. Elev Updated Type
                   

Watches & Warnings

Wind Chill Warning
Issued: 3:32 AM EST Feb. 14, 2016 – National Weather Service

... Wind chill warning remains in effect until 10 am EST this
morning...

* hazard types... dangerous wind chill readings.

* Wind chill... as low as 37 below due to temperatures 6 below to
16 below zero... and winds northwest 10 to 15 mph with gusts up
to 25 mph.

* Timing... Sunday morning.

* Impacts... frostbite and hypothermia if unprotected from the
cold.

* Winds... northwest 10 to 15 mph with gusts up to 25 mph.

* Temperatures... 6 below to 16 below zero.

Precautionary/preparedness actions...

A wind chill warning means the combination of very cold air and
strong winds will create dangerously low wind chill values. This
will result in frost bite and lead to hypothermia or death if
precautions are not taken.